sensor_id;sensor_type;location;lat;lon;timestamp;temperature;humidity
66102;HTU21D;52883;51.094;5.880;2022-08-23T00:01:48;16.50;118.99
66102;HTU21D;52883;51.094;5.880;2022-08-23T00:04:22;16.60;118.99
66102;HTU21D;52883;51.094;5.880;2022-08-23T00:06:49;16.70;118.99
66102;HTU21D;52883;51.094;5.880;2022-08-23T00:09:16;16.76;118.99
66102;HTU21D;52883;51.094;5.880;2022-08-23T00:11:50;16.82;118.99
66102;HTU21D;52883;51.094;5.880;2022-08-23T00:14:27;16.81;118.99
66102;HTU21D;52883;51.094;5.880;2022-08-23T00:16:55;16.72;118.99
66102;HTU21D;52883;51.094;5.880;2022-08-23T00:19:22;16.59;118.99
66102;HTU21D;52883;51.094;5.880;2022-08-23T00:21:50;16.56;118.99
66102;HTU21D;52883;51.094;5.880;2022-08-23T00:24:18;16.49;118.99
66102;HTU21D;52883;51.094;5.880;2022-08-23T00:29:18;16.43;118.99
66102;HTU21D;52883;51.094;5.880;2022-08-23T00:31:44;16.44;118.99
66102;HTU21D;52883;51.094;5.880;2022-08-23T00:34:10;16.42;118.99
66102;HTU21D;52883;51.094;5.880;2022-08-23T00:36:36;16.40;118.99
66102;HTU21D;52883;51.094;5.880;2022-08-23T00:39:03;16.43;118.99
66102;HTU21D;52883;51.094;5.880;2022-08-23T00:41:30;16.44;118.99
66102;HTU21D;52883;51.094;5.880;2022-08-23T00:43:56;16.44;118.99
66102;HTU21D;52883;51.094;5.880;2022-08-23T00:46:47;16.35;118.99
66102;HTU21D;52883;51.094;5.880;2022-08-23T00:49:35;16.24;118.99
66102;HTU21D;52883;51.094;5.880;2022-08-23T00:52:26;16.11;118.99
66102;HTU21D;52883;51.094;5.880;2022-08-23T00:54:56;16.01;118.99
66102;HTU21D;52883;51.094;5.880;2022-08-23T00:57:23;15.90;118.99
66102;HTU21D;52883;51.094;5.880;2022-08-23T00:59:49;15.80;118.99
66102;HTU21D;52883;51.094;5.880;2022-08-23T01:02:15;15.71;118.99
66102;HTU21D;52883;51.094;5.880;2022-08-23T01:04:46;15.63;118.99
66102;HTU21D;52883;51.094;5.880;2022-08-23T01:10:08;15.59;118.99
66102;HTU21D;52883;51.094;5.880;2022-08-23T01:12:44;15.58;118.99
66102;HTU21D;52883;51.094;5.880;2022-08-23T01:15:30;15.54;118.99
66102;HTU21D;52883;51.094;5.880;2022-08-23T01:18:03;15.51;118.99
66102;HTU21D;52883;51.094;5.880;2022-08-23T01:20:41;15.55;118.99
66102;HTU21D;52883;51.094;5.880;2022-08-23T01:26:13;15.63;118.99
66102;HTU21D;52883;51.094;5.880;2022-08-23T01:28:39;15.62;118.99
66102;HTU21D;52883;51.094;5.880;2022-08-23T01:31:06;15.60;118.99
66102;HTU21D;52883;51.094;5.880;2022-08-23T01:33:34;15.62;118.99
66102;HTU21D;52883;51.094;5.880;2022-08-23T01:36:01;15.65;118.99
66102;HTU21D;52883;51.094;5.880;2022-08-23T01:38:28;15.66;118.99
66102;HTU21D;52883;51.094;5.880;2022-08-23T01:40:54;15.68;118.99
66102;HTU21D;52883;51.094;5.880;2022-08-23T01:43:22;15.71;118.99
66102;HTU21D;52883;51.094;5.880;2022-08-23T01:45:51;15.66;118.99
66102;HTU21D;52883;51.094;5.880;2022-08-23T01:48:20;15.65;118.99
66102;HTU21D;52883;51.094;5.880;2022-08-23T01:50:47;15.63;118.99
66102;HTU21D;52883;51.094;5.880;2022-08-23T01:53:13;15.61;118.99
66102;HTU21D;52883;51.094;5.880;2022-08-23T01:55:44;15.60;118.99
66102;HTU21D;52883;51.094;5.880;2022-08-23T01:58:10;15.54;118.99
66102;HTU21D;52883;51.094;5.880;2022-08-23T02:00:40;15.44;118.99
66102;HTU21D;52883;51.094;5.880;2022-08-23T02:03:08;15.32;118.99
66102;HTU21D;52883;51.094;5.880;2022-08-23T02:05:35;15.24;118.99
66102;HTU21D;52883;51.094;5.880;2022-08-23T02:08:03;15.19;118.99
66102;HTU21D;52883;51.094;5.880;2022-08-23T02:10:52;15.16;118.99
66102;HTU21D;52883;51.094;5.880;2022-08-23T02:13:18;15.09;118.99
66102;HTU21D;52883;51.094;5.880;2022-08-23T02:15:46;15.02;118.99
66102;HTU21D;52883;51.094;5.880;2022-08-23T02:18:13;14.96;118.99
66102;HTU21D;52883;51.094;5.880;2022-08-23T02:20:45;14.96;118.99
66102;HTU21D;52883;51.094;5.880;2022-08-23T02:23:11;14.97;118.99
66102;HTU21D;52883;51.094;5.880;2022-08-23T02:25:37;14.92;118.99
66102;HTU21D;52883;51.094;5.880;2022-08-23T02:28:04;14.89;118.99
66102;HTU21D;52883;51.094;5.880;2022-08-23T02:30:30;14.84;118.99
66102;HTU21D;52883;51.094;5.880;2022-08-23T02:32:55;14.78;118.99
66102;HTU21D;52883;51.094;5.880;2022-08-23T02:35:22;14.79;118.99
66102;HTU21D;52883;51.094;5.880;2022-08-23T02:37:49;14.81;118.99
66102;HTU21D;52883;51.094;5.880;2022-08-23T02:40:17;14.82;118.99
66102;HTU21D;52883;51.094;5.880;2022-08-23T02:42:43;14.85;118.99
66102;HTU21D;52883;51.094;5.880;2022-08-23T02:45:10;14.85;118.99
66102;HTU21D;52883;51.094;5.880;2022-08-23T02:47:43;14.91;118.99
66102;HTU21D;52883;51.094;5.880;2022-08-23T02:50:15;14.99;118.99
66102;HTU21D;52883;51.094;5.880;2022-08-23T02:52:41;15.07;118.99
66102;HTU21D;52883;51.094;5.880;2022-08-23T02:55:07;15.17;118.99
66102;HTU21D;52883;51.094;5.880;2022-08-23T02:57:32;15.28;118.99
66102;HTU21D;52883;51.094;5.880;2022-08-23T03:00:01;15.34;118.99
66102;HTU21D;52883;51.094;5.880;2022-08-23T03:02:27;15.43;118.99
66102;HTU21D;52883;51.094;5.880;2022-08-23T03:04:52;15.49;118.99
66102;HTU21D;52883;51.094;5.880;2022-08-23T03:07:18;15.53;118.99
66102;HTU21D;52883;51.094;5.880;2022-08-23T03:09:44;15.55;118.99
66102;HTU21D;52883;51.094;5.880;2022-08-23T03:12:09;15.57;118.99
66102;HTU21D;52883;51.094;5.880;2022-08-23T03:14:40;15.58;118.99
66102;HTU21D;52883;51.094;5.880;2022-08-23T03:17:06;15.61;118.99
66102;HTU21D;52883;51.094;5.880;2022-08-23T03:19:33;15.65;118.99
66102;HTU21D;52883;51.094;5.880;2022-08-23T03:22:00;15.66;118.99
66102;HTU21D;52883;51.094;5.880;2022-08-23T03:24:26;15.63;118.99
66102;HTU21D;52883;51.094;5.880;2022-08-23T03:26:52;15.65;118.99
66102;HTU21D;52883;51.094;5.880;2022-08-23T03:29:17;15.66;118.99
66102;HTU21D;52883;51.094;5.880;2022-08-23T03:31:58;15.71;118.99
66102;HTU21D;52883;51.094;5.880;2022-08-23T03:34:25;15.73;118.99
66102;HTU21D;52883;51.094;5.880;2022-08-23T03:36:51;15.75;118.99
66102;HTU21D;52883;51.094;5.880;2022-08-23T03:39:17;15.76;118.99
66102;HTU21D;52883;51.094;5.880;2022-08-23T03:41:42;15.75;118.99
66102;HTU21D;52883;51.094;5.880;2022-08-23T03:44:08;15.80;118.99
66102;HTU21D;52883;51.094;5.880;2022-08-23T03:46:37;15.83;118.99
66102;HTU21D;52883;51.094;5.880;2022-08-23T03:49:03;15.89;118.99
66102;HTU21D;52883;51.094;5.880;2022-08-23T03:51:39;15.98;118.99
66102;HTU21D;52883;51.094;5.880;2022-08-23T03:54:05;16.02;118.99
66102;HTU21D;52883;51.094;5.880;2022-08-23T03:56:36;16.07;118.99
66102;HTU21D;52883;51.094;5.880;2022-08-23T03:59:07;16.11;118.99
66102;HTU21D;52883;51.094;5.880;2022-08-23T04:01:33;16.13;118.99
66102;HTU21D;52883;51.094;5.880;2022-08-23T04:03:59;16.14;118.99
66102;HTU21D;52883;51.094;5.880;2022-08-23T04:06:27;16.18;118.99
66102;HTU21D;52883;51.094;5.880;2022-08-23T04:08:53;16.20;118.99
66102;HTU21D;52883;51.094;5.880;2022-08-23T04:11:20;16.22;118.99
66102;HTU21D;52883;51.094;5.880;2022-08-23T04:13:54;16.27;118.99
66102;HTU21D;52883;51.094;5.880;2022-08-23T04:16:20;16.32;118.99
66102;HTU21D;52883;51.094;5.880;2022-08-23T04:18:46;16.36;118.99
66102;HTU21D;52883;51.094;5.880;2022-08-23T04:21:17;16.40;118.99
66102;HTU21D;52883;51.094;5.880;2022-08-23T04:23:43;16.42;118.99
66102;HTU21D;52883;51.094;5.880;2022-08-23T04:26:10;16.46;118.99
66102;HTU21D;52883;51.094;5.880;2022-08-23T04:28:37;16.47;118.99
66102;HTU21D;52883;51.094;5.880;2022-08-23T04:31:04;16.48;118.99
66102;HTU21D;52883;51.094;5.880;2022-08-23T04:33:32;16.48;118.99
66102;HTU21D;52883;51.094;5.880;2022-08-23T04:36:00;16.47;118.99
66102;HTU21D;52883;51.094;5.880;2022-08-23T04:38:27;16.45;118.99
66102;HTU21D;52883;51.094;5.880;2022-08-23T04:40:57;16.49;118.99
66102;HTU21D;52883;51.094;5.880;2022-08-23T04:43:44;16.54;118.99
66102;HTU21D;52883;51.094;5.880;2022-08-23T04:46:13;16.57;118.99
66102;HTU21D;52883;51.094;5.880;2022-08-23T04:48:45;16.63;118.99
66102;HTU21D;52883;51.094;5.880;2022-08-23T04:51:11;16.72;118.99
66102;HTU21D;52883;51.094;5.880;2022-08-23T04:53:38;16.81;118.99
66102;HTU21D;52883;51.094;5.880;2022-08-23T04:56:26;16.93;118.99
66102;HTU21D;52883;51.094;5.880;2022-08-23T04:58:53;17.06;118.99
66102;HTU21D;52883;51.094;5.880;2022-08-23T05:01:19;17.20;118.99
66102;HTU21D;52883;51.094;5.880;2022-08-23T05:03:45;17.37;118.99
66102;HTU21D;52883;51.094;5.880;2022-08-23T05:06:12;17.55;118.99
66102;HTU21D;52883;51.094;5.880;2022-08-23T05:08:38;17.72;118.99
66102;HTU21D;52883;51.094;5.880;2022-08-23T05:11:08;17.88;118.99
66102;HTU21D;52883;51.094;5.880;2022-08-23T05:13:35;18.07;118.99
66102;HTU21D;52883;51.094;5.880;2022-08-23T05:16:05;18.30;118.99
66102;HTU21D;52883;51.094;5.880;2022-08-23T05:18:34;18.53;118.99
66102;HTU21D;52883;51.094;5.880;2022-08-23T05:21:00;18.71;118.99
66102;HTU21D;52883;51.094;5.880;2022-08-23T05:23:27;18.86;118.99
66102;HTU21D;52883;51.094;5.880;2022-08-23T05:26:00;18.98;118.99
66102;HTU21D;52883;51.094;5.880;2022-08-23T05:28:33;18.99;118.99
66102;HTU21D;52883;51.094;5.880;2022-08-23T05:31:14;19.00;118.99
66102;HTU21D;52883;51.094;5.880;2022-08-23T05:33:45;19.00;118.99
66102;HTU21D;52883;51.094;5.880;2022-08-23T05:36:13;19.03;118.99
66102;HTU21D;52883;51.094;5.880;2022-08-23T05:38:40;19.07;118.99
66102;HTU21D;52883;51.094;5.880;2022-08-23T05:41:08;19.17;118.99
66102;HTU21D;52883;51.094;5.880;2022-08-23T05:43:35;19.23;118.99
66102;HTU21D;52883;51.094;5.880;2022-08-23T05:46:11;19.28;118.99
66102;HTU21D;52883;51.094;5.880;2022-08-23T05:48:40;19.38;118.99
66102;HTU21D;52883;51.094;5.880;2022-08-23T05:51:28;19.63;118.99
66102;HTU21D;52883;51.094;5.880;2022-08-23T05:54:02;20.11;118.99
66102;HTU21D;52883;51.094;5.880;2022-08-23T05:56:32;20.49;118.99
66102;HTU21D;52883;51.094;5.880;2022-08-23T05:59:01;20.84;118.99
66102;HTU21D;52883;51.094;5.880;2022-08-23T06:01:29;21.03;118.99
66102;HTU21D;52883;51.094;5.880;2022-08-23T06:03:59;21.14;118.99
66102;HTU21D;52883;51.094;5.880;2022-08-23T06:06:25;21.19;118.99
66102;HTU21D;52883;51.094;5.880;2022-08-23T06:08:51;21.15;118.99
66102;HTU21D;52883;51.094;5.880;2022-08-23T06:11:21;21.07;118.99
66102;HTU21D;52883;51.094;5.880;2022-08-23T06:13:50;21.07;118.99
66102;HTU21D;52883;51.094;5.880;2022-08-23T06:16:19;21.10;118.99
66102;HTU21D;52883;51.094;5.880;2022-08-23T06:18:46;21.24;118.99
66102;HTU21D;52883;51.094;5.880;2022-08-23T06:21:42;21.35;118.99
66102;HTU21D;52883;51.094;5.880;2022-08-23T06:24:08;21.45;118.99
66102;HTU21D;52883;51.094;5.880;2022-08-23T06:26:42;21.58;118.99
66102;HTU21D;52883;51.094;5.880;2022-08-23T06:29:12;21.72;118.99
66102;HTU21D;52883;51.094;5.880;2022-08-23T06:31:43;21.81;118.99
66102;HTU21D;52883;51.094;5.880;2022-08-23T06:37:02;22.09;118.99
66102;HTU21D;52883;51.094;5.880;2022-08-23T06:39:47;22.36;118.99
66102;HTU21D;52883;51.094;5.880;2022-08-23T06:42:33;23.43;116.99
66102;HTU21D;52883;51.094;5.880;2022-08-23T06:45:02;25.08;109.61
66102;HTU21D;52883;51.094;5.880;2022-08-23T06:47:39;26.64;101.96
66102;HTU21D;52883;51.094;5.880;2022-08-23T06:50:05;27.59;95.41
66102;HTU21D;52883;51.094;5.880;2022-08-23T06:52:50;27.93;94.18
66102;HTU21D;52883;51.094;5.880;2022-08-23T06:55:23;28.48;89.71
66102;HTU21D;52883;51.094;5.880;2022-08-23T06:58:26;29.32;83.29
66102;HTU21D;52883;51.094;5.880;2022-08-23T07:04:34;30.75;68.62
66102;HTU21D;52883;51.094;5.880;2022-08-23T07:07:07;30.52;70.60
66102;HTU21D;52883;51.094;5.880;2022-08-23T07:09:34;29.83;70.98
66102;HTU21D;52883;51.094;5.880;2022-08-23T07:12:01;28.56;76.92
66102;HTU21D;52883;51.094;5.880;2022-08-23T07:14:29;27.44;82.30
66102;HTU21D;52883;51.094;5.880;2022-08-23T07:16:58;26.48;89.02
66102;HTU21D;52883;51.094;5.880;2022-08-23T07:19:28;26.45;89.34
66102;HTU21D;52883;51.094;5.880;2022-08-23T07:21:55;26.32;89.50
66102;HTU21D;52883;51.094;5.880;2022-08-23T07:24:21;26.07;91.64
66102;HTU21D;52883;51.094;5.880;2022-08-23T07:26:49;25.84;93.66
66102;HTU21D;52883;51.094;5.880;2022-08-23T07:29:17;25.69;94.63
66102;HTU21D;52883;51.094;5.880;2022-08-23T07:31:52;25.53;95.87
66102;HTU21D;52883;51.094;5.880;2022-08-23T07:34:19;25.36;97.79
66102;HTU21D;52883;51.094;5.880;2022-08-23T07:36:47;25.22;98.67
66102;HTU21D;52883;51.094;5.880;2022-08-23T07:39:15;25.15;99.83
66102;HTU21D;52883;51.094;5.880;2022-08-23T07:41:41;25.17;100.54
66102;HTU21D;52883;51.094;5.880;2022-08-23T07:44:09;25.22;101.43
66102;HTU21D;52883;51.094;5.880;2022-08-23T07:46:38;25.44;101.40
66102;HTU21D;52883;51.094;5.880;2022-08-23T07:49:06;25.69;99.08
66102;HTU21D;52883;51.094;5.880;2022-08-23T07:51:41;25.86;95.52
66102;HTU21D;52883;51.094;5.880;2022-08-23T07:54:10;25.96;94.41
66102;HTU21D;52883;51.094;5.880;2022-08-23T07:56:57;26.48;92.09
66102;HTU21D;52883;51.094;5.880;2022-08-23T07:59:33;26.56;88.07
66102;HTU21D;52883;51.094;5.880;2022-08-23T08:02:13;26.33;91.69
66102;HTU21D;52883;51.094;5.880;2022-08-23T08:04:39;26.21;92.90
66102;HTU21D;52883;51.094;5.880;2022-08-23T08:07:05;26.23;93.13
66102;HTU21D;52883;51.094;5.880;2022-08-23T08:09:33;26.32;94.01
66102;HTU21D;52883;51.094;5.880;2022-08-23T08:11:59;26.87;90.16
66102;HTU21D;52883;51.094;5.880;2022-08-23T08:14:27;27.64;83.59
66102;HTU21D;52883;51.094;5.880;2022-08-23T08:16:55;28.04;82.24
66102;HTU21D;52883;51.094;5.880;2022-08-23T08:19:52;28.14;83.39
66102;HTU21D;52883;51.094;5.880;2022-08-23T08:22:36;29.00;78.30
66102;HTU21D;52883;51.094;5.880;2022-08-23T08:25:25;30.09;71.83
66102;HTU21D;52883;51.094;5.880;2022-08-23T08:27:52;31.09;67.30
66102;HTU21D;52883;51.094;5.880;2022-08-23T08:30:18;31.35;60.98
66102;HTU21D;52883;51.094;5.880;2022-08-23T08:32:44;30.94;66.21
66102;HTU21D;52883;51.094;5.880;2022-08-23T08:35:10;30.79;64.79
66102;HTU21D;52883;51.094;5.880;2022-08-23T08:37:36;30.78;65.18
66102;HTU21D;52883;51.094;5.880;2022-08-23T08:40:06;31.11;65.46
66102;HTU21D;52883;51.094;5.880;2022-08-23T08:45:23;32.62;60.90
66102;HTU21D;52883;51.094;5.880;2022-08-23T08:47:59;33.19;58.85
66102;HTU21D;52883;51.094;5.880;2022-08-23T08:50:40;33.71;58.15
66102;HTU21D;52883;51.094;5.880;2022-08-23T08:53:09;33.97;54.98
66102;HTU21D;52883;51.094;5.880;2022-08-23T08:56:22;34.10;56.81
66102;HTU21D;52883;51.094;5.880;2022-08-23T08:59:20;34.35;54.44
66102;HTU21D;52883;51.094;5.880;2022-08-23T09:01:46;34.49;51.45
66102;HTU21D;52883;51.094;5.880;2022-08-23T09:04:16;34.61;53.78
66102;HTU21D;52883;51.094;5.880;2022-08-23T09:06:52;34.81;52.55
66102;HTU21D;52883;51.094;5.880;2022-08-23T09:18:34;35.97;44.51
66102;HTU21D;52883;51.094;5.880;2022-08-23T09:21:05;36.15;43.93
66102;HTU21D;52883;51.094;5.880;2022-08-23T09:23:37;36.09;41.05
66102;HTU21D;52883;51.094;5.880;2022-08-23T09:26:27;36.08;45.88
66102;HTU21D;52883;51.094;5.880;2022-08-23T09:29:22;36.34;33.94
66102;HTU21D;52883;51.094;5.880;2022-08-23T09:31:52;36.55;42.99
66102;HTU21D;52883;51.094;5.880;2022-08-23T09:37:23;36.58;41.29
66102;HTU21D;52883;51.094;5.880;2022-08-23T09:39:52;36.75;38.98
66102;HTU21D;52883;51.094;5.880;2022-08-23T09:42:34;36.75;36.22
66102;HTU21D;52883;51.094;5.880;2022-08-23T09:45:29;36.59;33.01
66102;HTU21D;52883;51.094;5.880;2022-08-23T09:47:54;36.62;39.83
66102;HTU21D;52883;51.094;5.880;2022-08-23T09:50:30;36.85;39.67
66102;HTU21D;52883;51.094;5.880;2022-08-23T09:53:00;37.26;33.60
66102;HTU21D;52883;51.094;5.880;2022-08-23T09:58:04;37.41;37.10
66102;HTU21D;52883;51.094;5.880;2022-08-23T10:00:35;37.56;37.83
66102;HTU21D;52883;51.094;5.880;2022-08-23T10:03:25;37.66;34.43
66102;HTU21D;52883;51.094;5.880;2022-08-23T10:06:00;37.60;35.82
66102;HTU21D;52883;51.094;5.880;2022-08-23T10:08:36;37.74;32.56
66102;HTU21D;52883;51.094;5.880;2022-08-23T10:11:16;37.60;35.44
66102;HTU21D;52883;51.094;5.880;2022-08-23T10:13:42;37.64;34.40
66102;HTU21D;52883;51.094;5.880;2022-08-23T10:16:35;37.65;33.86
66102;HTU21D;52883;51.094;5.880;2022-08-23T10:19:19;37.50;31.77
66102;HTU21D;52883;51.094;5.880;2022-08-23T10:27:29;37.95;31.91
66102;HTU21D;52883;51.094;5.880;2022-08-23T10:30:21;37.92;32.57
66102;HTU21D;52883;51.094;5.880;2022-08-23T10:35:48;38.26;31.41
66102;HTU21D;52883;51.094;5.880;2022-08-23T10:38:25;37.99;32.49
66102;HTU21D;52883;51.094;5.880;2022-08-23T10:41:29;37.75;32.91
66102;HTU21D;52883;51.094;5.880;2022-08-23T10:44:24;37.36;34.65
66102;HTU21D;52883;51.094;5.880;2022-08-23T10:49:21;37.07;33.83
66102;HTU21D;52883;51.094;5.880;2022-08-23T10:51:49;37.45;33.81
66102;HTU21D;52883;51.094;5.880;2022-08-23T10:54:51;37.36;32.01
66102;HTU21D;52883;51.094;5.880;2022-08-23T10:57:31;37.35;32.91
66102;HTU21D;52883;51.094;5.880;2022-08-23T10:59:58;37.63;32.39
66102;HTU21D;52883;51.094;5.880;2022-08-23T11:02:40;37.44;32.83
66102;HTU21D;52883;51.094;5.880;2022-08-23T11:05:26;36.88;31.00
66102;HTU21D;52883;51.094;5.880;2022-08-23T11:08:06;36.93;33.15
66102;HTU21D;52883;51.094;5.880;2022-08-23T11:20:58;39.49;28.43
66102;HTU21D;52883;51.094;5.880;2022-08-23T11:28:50;40.75;28.96
66102;HTU21D;52883;51.094;5.880;2022-08-23T11:31:26;40.70;27.10
66102;HTU21D;52883;51.094;5.880;2022-08-23T11:42:50;38.37;30.17
66102;HTU21D;52883;51.094;5.880;2022-08-23T11:45:40;38.46;30.05
66102;HTU21D;52883;51.094;5.880;2022-08-23T11:51:06;38.63;29.48
66102;HTU21D;52883;51.094;5.880;2022-08-23T11:54:59;38.94;30.45
66102;HTU21D;52883;51.094;5.880;2022-08-23T11:56:54;39.58;29.26
66102;HTU21D;52883;51.094;5.880;2022-08-23T12:02:28;40.25;26.81
66102;HTU21D;52883;51.094;5.880;2022-08-23T12:05:00;40.38;27.15
66102;HTU21D;52883;51.094;5.880;2022-08-23T12:18:42;39.47;26.92
66102;HTU21D;52883;51.094;5.880;2022-08-23T12:21:24;39.86;26.53
66102;HTU21D;52883;51.094;5.880;2022-08-23T12:23:54;39.95;27.15
66102;HTU21D;52883;51.094;5.880;2022-08-23T12:26:25;40.06;25.86
66102;HTU21D;52883;51.094;5.880;2022-08-23T12:28:57;40.12;26.56
66102;HTU21D;52883;51.094;5.880;2022-08-23T12:31:53;39.99;23.80
66102;HTU21D;52883;51.094;5.880;2022-08-23T12:34:39;39.98;26.19
66102;HTU21D;52883;51.094;5.880;2022-08-23T12:37:30;39.85;25.62
66102;HTU21D;52883;51.094;5.880;2022-08-23T12:40:03;39.79;26.64
66102;HTU21D;52883;51.094;5.880;2022-08-23T12:42:33;39.89;25.43
66102;HTU21D;52883;51.094;5.880;2022-08-23T12:47:38;39.91;27.21
66102;HTU21D;52883;51.094;5.880;2022-08-23T12:50:18;39.64;26.23
66102;HTU21D;52883;51.094;5.880;2022-08-23T12:53:09;39.17;27.42
66102;HTU21D;52883;51.094;5.880;2022-08-23T12:55:39;39.04;26.38
66102;HTU21D;52883;51.094;5.880;2022-08-23T12:58:06;39.33;27.68
66102;HTU21D;52883;51.094;5.880;2022-08-23T13:00:39;39.82;27.56
66102;HTU21D;52883;51.094;5.880;2022-08-23T13:03:28;40.37;25.07
66102;HTU21D;52883;51.094;5.880;2022-08-23T13:06:01;40.19;25.11
66102;HTU21D;52883;51.094;5.880;2022-08-23T13:08:51;40.30;25.23
66102;HTU21D;52883;51.094;5.880;2022-08-23T13:11:22;40.41;24.59
66102;HTU21D;52883;51.094;5.880;2022-08-23T13:13:50;40.03;23.99
66102;HTU21D;52883;51.094;5.880;2022-08-23T13:16:32;39.52;25.56
66102;HTU21D;52883;51.094;5.880;2022-08-23T13:19:26;39.23;25.83
66102;HTU21D;52883;51.094;5.880;2022-08-23T13:22:23;38.60;26.46
66102;HTU21D;52883;51.094;5.880;2022-08-23T13:25:09;38.02;27.21
66102;HTU21D;52883;51.094;5.880;2022-08-23T13:32:39;37.80;28.10
66102;HTU21D;52883;51.094;5.880;2022-08-23T13:35:26;38.38;25.11
66102;HTU21D;52883;51.094;5.880;2022-08-23T13:40:57;39.04;25.80
66102;HTU21D;52883;51.094;5.880;2022-08-23T13:43:45;38.38;25.27
66102;HTU21D;52883;51.094;5.880;2022-08-23T13:46:21;37.57;26.63
66102;HTU21D;52883;51.094;5.880;2022-08-23T13:49:01;37.22;27.10
66102;HTU21D;52883;51.094;5.880;2022-08-23T13:52:20;36.92;28.42
66102;HTU21D;52883;51.094;5.880;2022-08-23T13:54:29;37.07;28.39
66102;HTU21D;52883;51.094;5.880;2022-08-23T13:57:15;37.30;27.94
66102;HTU21D;52883;51.094;5.880;2022-08-23T13:59:49;37.42;28.12
66102;HTU21D;52883;51.094;5.880;2022-08-23T14:02:18;37.59;28.35
66102;HTU21D;52883;51.094;5.880;2022-08-23T14:04:44;37.85;27.49
66102;HTU21D;52883;51.094;5.880;2022-08-23T14:07:10;38.02;25.88
66102;HTU21D;52883;51.094;5.880;2022-08-23T14:09:36;38.11;27.48
66102;HTU21D;52883;51.094;5.880;2022-08-23T14:12:06;38.30;27.77
66102;HTU21D;52883;51.094;5.880;2022-08-23T14:14:34;38.53;27.44
66102;HTU21D;52883;51.094;5.880;2022-08-23T14:17:01;38.70;26.33
66102;HTU21D;52883;51.094;5.880;2022-08-23T14:19:27;38.84;25.84
66102;HTU21D;52883;51.094;5.880;2022-08-23T14:21:53;38.76;25.72
66102;HTU21D;52883;51.094;5.880;2022-08-23T14:24:18;38.53;27.10
66102;HTU21D;52883;51.094;5.880;2022-08-23T14:26:44;38.73;27.26
66102;HTU21D;52883;51.094;5.880;2022-08-23T14:29:10;38.91;24.35
66102;HTU21D;52883;51.094;5.880;2022-08-23T14:31:36;38.90;26.44
66102;HTU21D;52883;51.094;5.880;2022-08-23T14:34:02;38.97;26.31
66102;HTU21D;52883;51.094;5.880;2022-08-23T14:36:27;38.78;25.90
66102;HTU21D;52883;51.094;5.880;2022-08-23T14:38:53;38.39;26.82
66102;HTU21D;52883;51.094;5.880;2022-08-23T14:41:22;38.12;27.65
66102;HTU21D;52883;51.094;5.880;2022-08-23T14:43:49;37.76;27.10
66102;HTU21D;52883;51.094;5.880;2022-08-23T14:46:17;37.57;28.11
66102;HTU21D;52883;51.094;5.880;2022-08-23T14:48:43;37.32;27.47
66102;HTU21D;52883;51.094;5.880;2022-08-23T14:51:31;36.93;27.76
66102;HTU21D;52883;51.094;5.880;2022-08-23T14:54:00;36.63;28.46
66102;HTU21D;52883;51.094;5.880;2022-08-23T14:56:25;36.30;28.85
66102;HTU21D;52883;51.094;5.880;2022-08-23T14:58:52;35.90;28.61
66102;HTU21D;52883;51.094;5.880;2022-08-23T15:01:18;35.50;29.48
66102;HTU21D;52883;51.094;5.880;2022-08-23T15:03:45;35.20;29.78
66102;HTU21D;52883;51.094;5.880;2022-08-23T15:06:12;35.03;30.42
66102;HTU21D;52883;51.094;5.880;2022-08-23T15:08:38;34.89;30.51
66102;HTU21D;52883;51.094;5.880;2022-08-23T15:11:04;34.76;30.64
66102;HTU21D;52883;51.094;5.880;2022-08-23T15:13:32;34.46;31.52
66102;HTU21D;52883;51.094;5.880;2022-08-23T15:15:58;34.07;31.92
66102;HTU21D;52883;51.094;5.880;2022-08-23T15:18:24;33.72;33.08
66102;HTU21D;52883;51.094;5.880;2022-08-23T15:20:50;33.47;33.43
66102;HTU21D;52883;51.094;5.880;2022-08-23T15:23:16;33.25;33.54
66102;HTU21D;52883;51.094;5.880;2022-08-23T15:25:43;33.03;33.86
66102;HTU21D;52883;51.094;5.880;2022-08-23T15:28:12;32.82;34.11
66102;HTU21D;52883;51.094;5.880;2022-08-23T15:30:39;32.66;34.07
66102;HTU21D;52883;51.094;5.880;2022-08-23T15:33:05;32.44;34.72
66102;HTU21D;52883;51.094;5.880;2022-08-23T15:35:38;32.32;35.28
66102;HTU21D;52883;51.094;5.880;2022-08-23T15:38:04;32.28;36.14
66102;HTU21D;52883;51.094;5.880;2022-08-23T15:40:30;32.23;36.13
66102;HTU21D;52883;51.094;5.880;2022-08-23T15:42:56;32.16;36.81
66102;HTU21D;52883;51.094;5.880;2022-08-23T15:45:21;32.07;37.05
66102;HTU21D;52883;51.094;5.880;2022-08-23T15:47:51;31.99;37.50
66102;HTU21D;52883;51.094;5.880;2022-08-23T15:50:21;31.96;37.79
66102;HTU21D;52883;51.094;5.880;2022-08-23T15:52:48;31.87;38.01
66102;HTU21D;52883;51.094;5.880;2022-08-23T15:55:14;31.78;38.35
66102;HTU21D;52883;51.094;5.880;2022-08-23T15:57:44;31.71;38.64
66102;HTU21D;52883;51.094;5.880;2022-08-23T16:00:11;31.66;38.82
66102;HTU21D;52883;51.094;5.880;2022-08-23T16:02:40;31.53;38.91
66102;HTU21D;52883;51.094;5.880;2022-08-23T16:05:07;31.44;39.27
66102;HTU21D;52883;51.094;5.880;2022-08-23T16:07:33;31.39;39.71
66102;HTU21D;52883;51.094;5.880;2022-08-23T16:10:00;31.33;40.14
66102;HTU21D;52883;51.094;5.880;2022-08-23T16:12:28;31.25;40.93
66102;HTU21D;52883;51.094;5.880;2022-08-23T16:14:54;31.21;41.00
66102;HTU21D;52883;51.094;5.880;2022-08-23T16:17:21;31.16;41.42
66102;HTU21D;52883;51.094;5.880;2022-08-23T16:19:47;31.11;41.87
66102;HTU21D;52883;51.094;5.880;2022-08-23T16:22:13;31.15;41.83
66102;HTU21D;52883;51.094;5.880;2022-08-23T16:24:39;31.12;43.25
66102;HTU21D;52883;51.094;5.880;2022-08-23T16:27:07;31.09;42.73
66102;HTU21D;52883;51.094;5.880;2022-08-23T16:29:33;30.96;42.78
66102;HTU21D;52883;51.094;5.880;2022-08-23T16:32:05;30.82;43.26
66102;HTU21D;52883;51.094;5.880;2022-08-23T16:34:30;30.72;43.85
66102;HTU21D;52883;51.094;5.880;2022-08-23T16:37:00;30.61;44.41
66102;HTU21D;52883;51.094;5.880;2022-08-23T16:39:27;30.50;45.22
66102;HTU21D;52883;51.094;5.880;2022-08-23T16:41:54;30.35;45.65
66102;HTU21D;52883;51.094;5.880;2022-08-23T16:44:19;30.22;46.94
66102;HTU21D;52883;51.094;5.880;2022-08-23T16:46:45;30.08;47.86
66102;HTU21D;52883;51.094;5.880;2022-08-23T16:49:14;29.94;48.39
66102;HTU21D;52883;51.094;5.880;2022-08-23T16:51:40;29.86;48.99
66102;HTU21D;52883;51.094;5.880;2022-08-23T16:54:07;29.78;49.88
66102;HTU21D;52883;51.094;5.880;2022-08-23T16:56:35;29.72;51.82
66102;HTU21D;52883;51.094;5.880;2022-08-23T16:59:04;29.60;51.77
66102;HTU21D;52883;51.094;5.880;2022-08-23T17:01:37;29.53;52.17
66102;HTU21D;52883;51.094;5.880;2022-08-23T17:04:06;29.46;52.28
66102;HTU21D;52883;51.094;5.880;2022-08-23T17:06:32;29.37;53.17
66102;HTU21D;52883;51.094;5.880;2022-08-23T17:08:57;29.30;53.27
66102;HTU21D;52883;51.094;5.880;2022-08-23T17:11:23;29.23;53.78
66102;HTU21D;52883;51.094;5.880;2022-08-23T17:13:48;29.15;54.79